Time;durP1;ratioP1;P1;durP2;ratioP2;P2;SDS_P1;SDS_P2;PMS_P1;PMS_P2;Temp;Humidity;BMP_temperature;BMP_pressure;BME280_temperature;BME280_humidity;BME280_pressure;Samples;Min_cycle;Max_cycle;Signal;HPM_P1;HPM_P2
2022/06/24 00:02:21;;;;;;;;;13.25;12.00;;;;;22.52;48.69;98751.00;6238016;27;100016;-68
2022/06/24 00:05:28;;;;;;;;;10.40;10.00;;;;;22.49;48.91;98752.41;6234441;28;97540;-68
2022/06/24 00:08:32;;;;;;;;;13.00;11.00;;;;;22.45;49.77;98754.94;6232796;28;97001;-69
2022/06/24 00:11:36;;;;;;;;;13.00;12.40;;;;;22.38;49.59;98760.00;6234344;28;98802;-70
2022/06/24 00:14:42;;;;;;;;;13.00;12.00;;;;;22.44;48.87;98753.31;6224823;28;98669;-68
2022/06/24 00:17:47;;;;;;;;;14.00;12.00;;;;;22.49;48.80;98757.88;6236248;28;97008;-69
2022/06/24 00:20:51;;;;;;;;;13.00;12.40;;;;;22.51;48.78;98754.84;6211424;28;98244;-69
2022/06/24 00:23:55;;;;;;;;;14.00;12.20;;;;;22.46;48.79;98753.00;6229460;28;98081;-68
2022/06/24 00:26:59;;;;;;;;;13.25;12.00;;;;;22.43;48.35;98751.66;6216853;28;96719;-69
2022/06/24 00:30:08;;;;;;;;;9.00;9.00;;;;;22.37;49.04;98758.38;6229577;28;96653;-68
2022/06/24 00:33:14;;;;;;;;;12.00;11.00;;;;;22.32;49.31;98754.91;6236746;27;96617;-70
2022/06/24 00:36:19;;;;;;;;;13.00;13.00;;;;;22.27;49.48;98753.06;6235266;28;97719;-68
2022/06/24 00:39:32;;;;;;;;;14.60;12.60;;;;;22.17;49.70;98755.16;6231886;28;99422;-69
2022/06/24 00:42:40;;;;;;;;;13.40;12.40;;;;;22.14;49.53;98747.53;6234897;28;96839;-68
2022/06/24 00:45:49;;;;;;;;;13.60;13.00;;;;;22.06;50.23;98749.03;6228155;28;96640;-68
2022/06/24 00:48:54;;;;;;;;;12.80;12.00;;;;;21.98;50.27;98750.53;6232784;28;99435;-68
2022/06/24 00:51:57;;;;;;;;;13.00;12.00;;;;;21.91;50.09;98743.75;6235172;27;97405;-68
2022/06/24 00:55:01;;;;;;;;;14.40;13.00;;;;;21.86;50.22;98746.56;6237610;28;97366;-68
2022/06/24 00:58:11;;;;;;;;;12.40;11.00;;;;;21.83;50.64;98744.44;6237886;28;99182;-68
2022/06/24 01:01:15;;;;;;;;;12.40;12.00;;;;;21.80;50.83;98745.84;6230054;28;97489;-69
2022/06/24 01:04:18;;;;;;;;;12.00;11.00;;;;;21.81;50.68;98735.69;6232346;28;97499;-69
2022/06/24 01:07:22;;;;;;;;;13.00;12.00;;;;;21.76;50.63;98742.06;6238530;28;96544;-70
2022/06/24 01:10:26;;;;;;;;;13.00;12.00;;;;;21.77;50.47;98748.38;6234219;28;97527;-69
2022/06/24 01:13:31;;;;;;;;;12.00;12.00;;;;;21.73;50.79;98741.84;6238729;28;96615;-70
2022/06/24 01:16:34;;;;;;;;;11.00;10.20;;;;;21.72;50.53;98740.22;6237573;27;96754;-69
2022/06/24 01:19:38;;;;;;;;;13.00;12.00;;;;;21.67;50.51;98730.13;6228835;28;96901;-69
2022/06/24 01:22:43;;;;;;;;;12.75;11.75;;;;;21.60;50.81;98726.94;6233436;28;97551;-68
2022/06/24 01:25:47;;;;;;;;;13.00;12.00;;;;;21.57;51.15;98733.84;6234797;28;98731;-69
2022/06/24 01:28:51;;;;;;;;;14.00;12.00;;;;;21.53;50.98;98729.25;6239962;28;96802;-68
2022/06/24 01:31:55;;;;;;;;;12.00;11.40;;;;;21.46;51.12;98718.66;6221822;28;96652;-70
2022/06/24 01:34:58;;;;;;;;;14.00;13.00;;;;;21.41;51.62;98717.91;6219385;28;97366;-69
2022/06/24 01:38:06;;;;;;;;;12.00;11.60;;;;;21.39;51.63;98712.72;6239095;28;96745;-68
2022/06/24 01:41:09;;;;;;;;;13.00;13.00;;;;;21.35;51.66;98719.91;6233697;28;96907;-68
2022/06/24 01:44:12;;;;;;;;;15.00;13.00;;;;;21.30;51.59;98714.50;6239455;28;97446;-70
2022/06/24 01:47:16;;;;;;;;;11.40;10.40;;;;;21.28;51.77;98713.97;6229823;28;97235;-67
2022/06/24 01:50:19;;;;;;;;;11.00;11.00;;;;;21.24;52.08;98718.44;6224668;28;97408;-68
2022/06/24 01:53:24;;;;;;;;;14.00;13.00;;;;;21.19;52.06;98726.72;6236647;28;96773;-68
2022/06/24 01:56:28;;;;;;;;;13.00;12.00;;;;;21.20;52.17;98722.88;6238596;28;97171;-70
2022/06/24 01:59:31;;;;;;;;;12.00;11.00;;;;;21.16;52.20;98728.09;6237226;28;96793;-69
2022/06/24 02:02:35;;;;;;;;;12.00;11.60;;;;;21.14;52.01;98727.59;6252277;27;97574;-68
2022/06/24 02:05:41;;;;;;;;;12.80;11.80;;;;;21.12;52.58;98723.47;6260279;27;96421;-68
2022/06/24 02:08:47;;;;;;;;;14.40;12.60;;;;;21.12;52.03;98724.28;6259288;27;96374;-67
2022/06/24 02:15:11;;;;;;;;;11.00;11.00;;;;;21.12;52.03;98716.06;6243846;27;97739;-69
2022/06/24 02:18:15;;;;;;;;;13.60;13.00;;;;;21.12;51.76;98723.47;6256565;27;96526;-67
2022/06/24 02:21:20;;;;;;;;;15.00;14.00;;;;;21.08;51.63;98730.66;6263730;27;96751;-69
2022/06/24 02:24:25;;;;;;;;;12.00;10.00;;;;;21.03;51.39;98723.31;6245210;27;98051;-70
2022/06/24 02:27:28;;;;;;;;;13.00;12.00;;;;;21.01;50.74;98725.53;6262240;27;97586;-68
2022/06/24 02:30:32;;;;;;;;;11.60;11.00;;;;;21.00;50.62;98718.44;6232035;27;96832;-68
2022/06/24 02:33:36;;;;;;;;;13.00;12.00;;;;;20.95;50.42;98721.25;6262734;27;97401;-68
2022/06/24 02:36:39;;;;;;;;;11.50;11.00;;;;;20.93;50.98;98719.88;6259288;27;97440;-70
2022/06/24 02:39:44;;;;;;;;;11.00;10.00;;;;;20.87;50.78;98721.06;6238832;27;99725;-67
2022/06/24 02:42:47;;;;;;;;;12.00;11.00;;;;;20.85;51.02;98712.31;6231810;27;99403;-67
2022/06/24 02:45:52;;;;;;;;;12.00;11.00;;;;;20.85;50.78;98717.81;6239122;27;97633;-69
2022/06/24 02:48:55;;;;;;;;;8.60;8.60;;;;;20.86;50.68;98719.44;6254760;27;96980;-68
2022/06/24 02:51:58;;;;;;;;;12.60;11.00;;;;;20.85;50.91;98726.84;6243264;27;97230;-69
2022/06/24 02:55:04;;;;;;;;;11.75;10.00;;;;;20.83;51.14;98728.22;6261203;27;96771;-71
2022/06/24 02:58:07;;;;;;;;;13.00;12.00;;;;;20.80;51.25;98729.66;6250722;27;99111;-67
2022/06/24 03:01:11;;;;;;;;;11.00;11.00;;;;;20.81;51.26;98736.75;6234408;27;96779;-70
2022/06/24 03:04:14;;;;;;;;;11.50;11.00;;;;;20.80;51.45;98742.53;6256292;27;97726;-70
2022/06/24 03:07:18;;;;;;;;;14.00;12.00;;;;;20.80;51.15;98737.88;6261915;27;97439;-69
2022/06/24 03:10:23;;;;;;;;;12.00;11.00;;;;;20.77;51.41;98737.63;6245641;27;97249;-70
2022/06/24 03:13:28;;;;;;;;;12.00;11.80;;;;;20.71;51.42;98732.22;6244316;27;97775;-70
2022/06/24 03:16:32;;;;;;;;;11.80;10.80;;;;;20.78;51.25;98726.38;6253957;27;97536;-69
2022/06/24 03:19:35;;;;;;;;;11.60;11.00;;;;;20.80;51.16;98728.81;6225829;27;100712;-67
2022/06/24 03:22:39;;;;;;;;;12.00;11.00;;;;;20.83;50.84;98730.97;6258992;27;97087;-70
2022/06/24 03:25:44;;;;;;;;;12.60;11.00;;;;;20.81;51.13;98727.72;6249076;27;97487;-70
2022/06/24 03:28:48;;;;;;;;;11.20;11.00;;;;;20.78;51.46;98726.38;6259016;27;96560;-70
2022/06/24 03:31:52;;;;;;;;;13.00;12.00;;;;;20.72;51.72;98728.34;6236934;27;98359;-68
2022/06/24 03:34:55;;;;;;;;;12.80;11.00;;;;;20.77;51.63;98741.16;6235182;27;97102;-70
2022/06/24 03:37:58;;;;;;;;;11.00;11.00;;;;;20.75;51.78;98735.19;6242702;27;99455;-71
2022/06/24 03:41:03;;;;;;;;;12.00;11.00;;;;;20.71;51.50;98736.88;6242919;27;96762;-69
2022/06/24 03:44:07;;;;;;;;;11.00;11.00;;;;;20.62;51.79;98735.88;6243109;27;98427;-71
2022/06/24 03:47:10;;;;;;;;;13.00;12.00;;;;;20.65;51.86;98741.59;6242598;27;97120;-70
2022/06/24 03:50:13;;;;;;;;;13.40;12.40;;;;;20.67;51.84;98739.34;6241979;27;97282;-69
2022/06/24 03:53:17;;;;;;;;;12.80;12.20;;;;;20.77;51.76;98744.72;6230600;27;96996;-69
2022/06/24 03:56:22;;;;;;;;;13.00;12.00;;;;;20.91;51.64;98749.53;6259101;27;96632;-69
2022/06/24 03:59:25;;;;;;;;;12.20;12.00;;;;;20.99;50.77;98746.94;6249132;27;96640;-69
2022/06/24 04:02:29;;;;;;;;;12.00;11.00;;;;;21.03;50.53;98747.16;6255983;27;96778;-68
2022/06/24 04:05:32;;;;;;;;;13.00;13.00;;;;;21.07;50.44;98753.69;6225008;27;97246;-69
2022/06/24 04:08:36;;;;;;;;;12.80;11.80;;;;;21.07;50.67;98757.25;6231875;27;97410;-71
2022/06/24 04:11:48;;;;;;;;;13.20;12.00;;;;;21.18;50.53;98755.25;6223236;27;98583;-71
2022/06/24 04:18:11;;;;;;;;;15.00;12.00;;;;;21.30;49.84;98758.38;6256887;27;97411;-72
2022/06/24 04:21:16;;;;;;;;;14.00;12.80;;;;;21.39;49.85;98758.53;6246417;27;97464;-71
2022/06/24 04:24:20;;;;;;;;;13.00;12.00;;;;;21.50;49.21;98762.78;6246132;27;96675;-72
2022/06/24 04:27:25;;;;;;;;;14.00;13.00;;;;;21.59;49.06;98756.31;6250114;27;97152;-72
2022/06/24 04:30:29;;;;;;;;;14.00;13.00;;;;;21.68;48.74;98767.44;6241989;27;99011;-73
2022/06/24 04:33:32;;;;;;;;;12.00;12.00;;;;;21.76;48.44;98765.94;6237507;27;97133;-73
2022/06/24 04:36:37;;;;;;;;;11.80;11.00;;;;;21.93;48.49;98772.59;6259204;27;97486;-72
2022/06/24 04:39:40;;;;;;;;;11.40;11.00;;;;;22.07;47.84;98764.41;6257045;27;97402;-71
2022/06/24 04:42:46;;;;;;;;;11.80;10.80;;;;;22.16;47.32;98770.00;6261583;27;96545;-72
2022/06/24 04:45:49;;;;;;;;;12.80;11.00;;;;;22.31;46.95;98780.75;6228597;27;99487;-73
2022/06/24 04:48:52;;;;;;;;;11.00;11.00;;;;;22.46;47.40;98772.25;6259284;27;96755;-70
2022/06/24 04:51:56;;;;;;;;;12.00;11.00;;;;;22.61;46.53;98762.91;6239374;27;97401;-72
2022/06/24 04:55:01;;;;;;;;;11.00;10.00;;;;;22.79;46.28;98760.09;6243630;27;96747;-72
2022/06/24 04:58:06;;;;;;;;;12.40;10.00;;;;;22.89;45.53;98768.16;6253491;27;97330;-72
2022/06/24 05:01:10;;;;;;;;;11.00;10.00;;;;;23.04;45.84;98764.28;6235782;27;97637;-72
2022/06/24 05:04:13;;;;;;;;;10.80;10.80;;;;;23.21;45.66;98764.47;6241286;27;98926;-72
2022/06/24 05:07:17;;;;;;;;;12.00;11.00;;;;;23.37;45.65;98758.63;6214428;27;97335;-72
2022/06/24 05:10:20;;;;;;;;;11.00;10.00;;;;;23.41;44.89;98743.16;6255021;27;97397;-72
2022/06/24 05:13:25;;;;;;;;;10.25;10.00;;;;;23.60;44.25;98763.91;6258543;27;97976;-73
2022/06/24 05:16:28;;;;;;;;;10.60;10.60;;;;;23.63;43.98;98760.56;6255821;27;96726;-71
2022/06/24 05:19:41;;;;;;;;;11.60;10.00;;;;;23.69;44.78;98756.56;6253034;27;96586;-73
2022/06/24 05:22:45;;;;;;;;;12.00;11.00;;;;;23.82;43.62;98756.81;6254293;27;96687;-73
2022/06/24 05:25:48;;;;;;;;;11.00;11.00;;;;;23.89;44.04;98759.97;6238364;27;97374;-72
2022/06/24 05:28:53;;;;;;;;;11.25;11.00;;;;;23.90;43.84;98762.41;6255802;27;96730;-72
2022/06/24 05:31:56;;;;;;;;;10.00;10.00;;;;;24.08;44.06;98749.59;6256342;27;97408;-72
2022/06/24 05:34:59;;;;;;;;;10.00;10.00;;;;;24.27;43.68;98764.00;6233086;27;97787;-72
2022/06/24 05:38:03;;;;;;;;;8.20;8.20;;;;;24.46;43.06;98755.53;6252774;27;96605;-71
2022/06/24 05:41:06;;;;;;;;;10.00;10.00;;;;;24.65;42.51;98761.63;6253177;27;97165;-71
2022/06/24 05:44:11;;;;;;;;;11.00;10.00;;;;;24.67;41.92;98753.06;6236105;27;96796;-71
2022/06/24 05:47:15;;;;;;;;;11.00;10.00;;;;;24.88;42.32;98759.66;6239343;27;96602;-72
2022/06/24 05:50:19;;;;;;;;;10.25;10.00;;;;;24.96;41.69;98764.41;6245562;27;96807;-72
2022/06/24 05:56:43;;;;;;;;;11.50;10.00;;;;;25.12;41.08;98773.06;6246088;27;97558;-73
2022/06/24 05:59:50;;;;;;;;;11.40;10.00;;;;;25.12;41.11;98771.09;6235050;27;96776;-73
2022/06/24 06:02:53;;;;;;;;;11.00;11.00;;;;;25.23;40.78;98764.16;6257234;27;97895;-71
2022/06/24 06:05:57;;;;;;;;;11.00;10.00;;;;;25.22;40.81;98767.22;6216462;27;98650;-71
2022/06/24 06:09:00;;;;;;;;;9.00;9.00;;;;;25.31;40.87;98762.56;6263846;27;96810;-72
2022/06/24 06:12:04;;;;;;;;;10.00;10.00;;;;;25.38;41.85;98763.72;6262714;27;96600;-71
2022/06/24 06:15:11;;;;;;;;;9.00;8.40;;;;;25.33;41.33;98766.63;6243921;27;97431;-72
2022/06/24 06:18:14;;;;;;;;;12.00;11.00;;;;;25.27;40.89;98762.38;6229260;27;97177;-71
2022/06/24 06:21:18;;;;;;;;;10.00;9.50;;;;;25.31;41.47;98763.38;6228395;27;98914;-72
2022/06/24 06:24:21;;;;;;;;;8.00;8.00;;;;;25.49;42.01;98755.94;6263783;27;97712;-71
2022/06/24 06:27:24;;;;;;;;;8.00;7.20;;;;;25.61;40.22;98766.38;6262973;27;97201;-72
2022/06/24 06:30:30;;;;;;;;;7.50;6.50;;;;;25.68;39.82;98767.50;6243781;27;98342;-72
2022/06/24 06:33:33;;;;;;;;;9.00;9.00;;;;;26.03;41.13;98764.75;6263624;27;96448;-70
2022/06/24 06:36:37;;;;;;;;;8.00;7.40;;;;;26.29;40.46;98773.88;6259293;27;97478;-72
2022/06/24 06:39:40;;;;;;;;;8.00;8.00;;;;;26.48;39.50;98774.34;6239953;27;96487;-71
2022/06/24 06:42:43;;;;;;;;;9.50;8.75;;;;;26.70;39.32;98774.09;6263230;27;97203;-72
2022/06/24 06:45:51;;;;;;;;;11.60;10.00;;;;;26.87;38.95;98776.03;6221447;27;96662;-71
2022/06/24 06:48:54;;;;;;;;;8.00;8.00;;;;;26.99;38.90;98770.59;6261385;27;97546;-72
2022/06/24 06:52:00;;;;;;;;;10.00;9.00;;;;;27.21;39.56;98771.47;6261684;27;96716;-72
2022/06/24 06:55:04;;;;;;;;;8.00;7.00;;;;;27.41;37.61;98771.53;6244809;27;96754;-73
2022/06/24 06:58:07;;;;;;;;;10.00;9.00;;;;;27.56;37.91;98778.47;6263381;27;97388;-72
2022/06/24 07:01:12;;;;;;;;;8.00;8.00;;;;;27.65;37.30;98764.56;6244891;27;97612;-74
2022/06/24 07:04:16;;;;;;;;;10.00;9.00;;;;;27.80;37.38;98767.53;6262157;27;97094;-73
2022/06/24 07:07:19;;;;;;;;;8.50;8.00;;;;;27.84;37.34;98767.66;6244958;27;98755;-72
2022/06/24 07:10:22;;;;;;;;;9.00;8.00;;;;;27.76;36.46;98772.09;6263619;27;96534;-72
2022/06/24 07:13:27;;;;;;;;;9.00;7.00;;;;;27.99;36.27;98767.88;6258583;27;97454;-72
2022/06/24 07:16:32;;;;;;;;;9.00;8.00;;;;;27.97;36.20;98769.34;6218245;27;97041;-72
2022/06/24 07:19:35;;;;;;;;;8.00;6.75;;;;;27.88;36.69;98769.41;6244702;27;96781;-71
2022/06/24 07:22:40;;;;;;;;;7.00;7.00;;;;;27.97;35.62;98758.25;6263043;27;97402;-72
2022/06/24 07:25:43;;;;;;;;;7.25;7.00;;;;;27.90;35.50;98758.81;6242924;27;96620;-72
2022/06/24 07:28:46;;;;;;;;;7.40;6.00;;;;;28.07;36.04;98755.06;6255197;27;97877;-71
2022/06/24 07:31:51;;;;;;;;;8.00;8.00;;;;;28.08;35.50;98751.16;6262392;27;97468;-71
2022/06/24 07:35:01;;;;;;;;;5.40;5.40;;;;;28.13;32.66;98752.94;6262058;27;97698;-71
2022/06/24 07:38:04;;;;;;;;;4.67;4.00;;;;;28.12;32.16;98743.81;6249060;27;97311;-72
2022/06/24 07:41:09;;;;;;;;;4.00;4.00;;;;;28.24;31.95;98746.66;6227864;27;97892;-73
2022/06/24 07:44:13;;;;;;;;;4.00;4.00;;;;;28.14;31.24;98766.47;6244542;27;97535;-73
2022/06/24 07:47:18;;;;;;;;;4.00;4.00;;;;;27.64;31.16;98747.13;6243060;27;96636;-72
2022/06/24 07:50:21;;;;;;;;;4.00;4.00;;;;;27.90;31.83;98741.38;6244785;27;96761;-72
2022/06/24 07:53:27;;;;;;;;;5.00;4.00;;;;;28.28;30.67;98735.69;6244184;27;97526;-71
2022/06/24 07:59:52;;;;;;;;;4.00;3.00;;;;;28.48;30.11;98734.00;6248398;27;96740;-72
2022/06/24 08:02:56;;;;;;;;;3.75;3.00;;;;;28.56;29.82;98725.56;6262033;27;96448;-73
2022/06/24 08:06:00;;;;;;;;;5.00;4.00;;;;;28.39;29.64;98725.78;6262815;27;96944;-72
2022/06/24 08:09:04;;;;;;;;;3.00;3.00;;;;;28.20;29.59;98726.28;6245037;27;96690;-73
2022/06/24 08:12:08;;;;;;;;;3.25;3.25;;;;;28.00;29.26;98727.91;6262201;27;97472;-71
2022/06/24 08:15:14;;;;;;;;;3.00;3.00;;;;;28.55;29.97;98715.63;6227812;27;99877;-73
2022/06/24 08:18:19;;;;;;;;;3.20;3.00;;;;;28.91;29.03;98712.13;6243935;27;99556;-71
2022/06/24 08:21:22;;;;;;;;;3.25;3.25;;;;;29.26;28.26;98695.78;6251037;27;96455;-71
2022/06/24 08:24:26;;;;;;;;;4.00;2.00;;;;;28.90;28.27;98713.25;6243329;27;99570;-71
2022/06/24 08:27:30;;;;;;;;;4.00;3.00;;;;;28.83;28.04;98713.84;6244411;27;96652;-72
2022/06/24 08:30:34;;;;;;;;;4.00;4.00;;;;;29.07;27.82;98699.16;6262165;27;97033;-73
2022/06/24 08:33:39;;;;;;;;;4.00;3.00;;;;;29.37;28.98;98702.50;6262138;27;96367;-72
2022/06/24 08:36:42;;;;;;;;;3.00;3.00;;;;;29.35;27.27;98713.16;6226869;27;97152;-73
2022/06/24 08:39:45;;;;;;;;;4.00;4.00;;;;;29.51;27.80;98691.03;6261654;27;97466;-72
2022/06/24 08:42:54;;;;;;;;;3.00;3.00;;;;;29.80;27.94;98690.72;6261845;27;96507;-72
2022/06/24 08:45:57;;;;;;;;;3.00;3.00;;;;;29.55;27.52;98698.31;6262423;27;97527;-73
2022/06/24 08:49:03;;;;;;;;;5.00;4.00;;;;;29.58;26.75;98694.00;6243601;27;97521;-72
2022/06/24 08:52:10;;;;;;;;;3.00;3.00;;;;;29.90;27.28;98689.44;6259505;27;96801;-72
2022/06/24 08:55:17;;;;;;;;;3.00;3.00;;;;;29.84;26.75;98686.06;6249943;27;97484;-73
2022/06/24 08:58:21;;;;;;;;;5.00;4.00;;;;;29.47;27.51;98692.91;6244400;27;96830;-72
2022/06/24 09:01:24;;;;;;;;;3.00;3.00;;;;;30.03;27.63;98688.19;6243046;27;99561;-73
2022/06/24 09:04:32;;;;;;;;;3.00;3.00;;;;;30.17;26.48;98683.03;6261924;27;97410;-72
2022/06/24 09:07:35;;;;;;;;;2.00;2.00;;;;;30.30;26.41;98692.13;6262014;27;97526;-73
2022/06/24 09:10:41;;;;;;;;;2.60;2.00;;;;;30.16;26.21;98688.94;6261603;27;97477;-72
2022/06/24 09:13:49;;;;;;;;;3.00;3.00;;;;;30.21;26.70;98677.56;6262374;27;97981;-72
2022/06/24 09:16:52;;;;;;;;;5.00;4.00;;;;;30.64;26.34;98671.19;6247449;27;97748;-71
2022/06/24 09:20:06;;;;;;;;;3.00;3.00;;;;;30.77;25.19;98672.69;6247481;27;96690;-72
2022/06/24 09:23:30;;;;;;;;;4.00;3.00;;;;;31.03;25.74;98670.19;6207121;27;98190;-72
2022/06/24 09:26:36;;;;;;;;;4.00;3.20;;;;;31.15;25.49;98664.50;6247663;27;97436;-72
2022/06/24 09:29:47;;;;;;;;;4.00;3.40;;;;;31.20;24.98;98666.19;6222368;27;97297;-72
2022/06/24 09:32:52;;;;;;;;;3.20;3.00;;;;;31.03;24.88;98664.63;6245075;27;98281;-72
2022/06/24 09:36:17;;;;;;;;;3.00;3.00;;;;;31.18;25.61;98657.41;6265434;27;97461;-72
2022/06/24 09:39:23;;;;;;;;;2.00;2.00;;;;;31.32;24.91;98661.31;6245070;27;98375;-72
2022/06/24 09:42:32;;;;;;;;;4.00;3.00;;;;;31.37;24.76;98668.56;6260746;27;96687;-74
2022/06/24 09:45:47;;;;;;;;;3.60;3.60;;;;;30.72;24.52;98657.09;6265672;27;96613;-72
2022/06/24 09:48:53;;;;;;;;;3.00;3.00;;;;;31.06;24.76;98655.53;6255454;27;96634;-72
2022/06/24 09:51:59;;;;;;;;;5.00;3.00;;;;;31.32;24.72;98646.56;6265555;27;97448;-71
2022/06/24 09:55:03;;;;;;;;;5.00;4.00;;;;;31.57;23.34;98659.06;6265773;27;96512;-73
2022/06/24 09:58:07;;;;;;;;;4.00;3.00;;;;;31.50;23.87;98658.09;6265102;27;96955;-73
2022/06/24 10:01:09;;;;;;;;;3.00;3.00;;;;;31.49;24.51;98640.56;6264728;27;96607;-72
2022/06/24 10:04:17;;;;;;;;;3.40;3.00;;;;;31.49;23.43;98640.56;6247090;27;98453;-74
2022/06/24 10:07:25;;;;;;;;;3.00;3.00;;;;;31.70;24.80;98643.03;6239177;28;97128;-73
2022/06/24 10:10:40;;;;;;;;;3.40;3.40;;;;;31.84;23.95;98634.94;6262146;27;98000;-71
2022/06/24 10:13:44;;;;;;;;;3.00;3.00;;;;;31.82;23.06;98634.50;6229821;27;98429;-71
2022/06/24 10:16:50;;;;;;;;;3.25;3.25;;;;;31.82;22.89;98640.88;6245681;27;97760;-71
2022/06/24 10:19:55;;;;;;;;;3.00;3.00;;;;;31.63;23.48;98623.34;6265494;27;96537;-73
2022/06/24 10:23:00;;;;;;;;;2.00;2.00;;;;;32.06;23.43;98625.81;6233542;27;96608;-73
2022/06/24 10:26:13;;;;;;;;;3.00;3.00;;;;;32.09;23.51;98624.28;6263909;27;97318;-74
2022/06/24 10:29:31;;;;;;;;;4.00;4.00;;;;;32.28;23.24;98615.88;6262832;27;96777;-72
2022/06/24 10:32:35;;;;;;;;;3.00;3.00;;;;;32.25;23.11;98620.19;6244304;27;97739;-71
2022/06/24 10:35:57;;;;;;;;;3.00;3.00;;;;;32.48;22.39;98617.44;6257279;27;97177;-74
2022/06/24 10:39:10;;;;;;;;;3.00;3.00;;;;;32.33;21.93;98614.75;6247171;27;97434;-72
2022/06/24 10:42:15;;;;;;;;;2.00;2.00;;;;;32.06;21.74;98619.44;6264794;27;97353;-72
2022/06/24 10:45:34;;;;;;;;;3.00;2.40;;;;;32.14;22.86;98605.28;6264839;27;96721;-73
2022/06/24 10:49:01;;;;;;;;;3.00;3.00;;;;;32.70;22.54;98604.66;6264559;27;96552;-74
2022/06/24 10:52:33;;;;;;;;;3.00;3.00;;;;;32.91;22.26;98609.75;6207779;28;100127;-72
2022/06/24 10:55:42;;;;;;;;;3.00;2.00;;;;;32.71;21.88;98599.88;6254446;27;97453;-72
2022/06/24 10:58:45;;;;;;;;;3.00;3.00;;;;;33.09;22.51;98600.44;6225491;27;98820;-73
2022/06/24 11:01:52;;;;;;;;;2.80;2.20;;;;;33.37;21.59;98596.47;6264161;27;96591;-72
2022/06/24 11:04:57;;;;;;;;;4.00;3.00;;;;;33.64;22.36;98591.59;6264613;27;96936;-73
2022/06/24 11:08:00;;;;;;;;;2.40;2.00;;;;;33.64;21.49;98586.81;6245179;27;97159;-71
2022/06/24 11:11:06;;;;;;;;;2.75;2.00;;;;;33.81;21.61;98579.84;6244332;27;97029;-71
2022/06/24 11:14:25;;;;;;;;;3.80;3.80;;;;;33.58;21.40;98577.16;6248088;27;96598;-72
2022/06/24 11:17:29;;;;;;;;;3.00;2.00;;;;;33.08;21.46;98564.53;6257774;27;96633;-73
2022/06/24 11:20:34;;;;;;;;;3.00;3.00;;;;;33.50;21.98;98573.47;6239072;27;96649;-73
2022/06/24 11:23:40;;;;;;;;;2.75;2.00;;;;;33.64;21.19;98563.63;6263409;27;96536;-72
2022/06/24 11:27:03;;;;;;;;;3.00;3.00;;;;;33.78;22.22;98561.03;6238336;27;98500;-72
2022/06/24 11:30:08;;;;;;;;;3.00;3.00;;;;;33.61;21.53;98565.22;6239925;27;96712;-72
2022/06/24 11:33:18;;;;;;;;;3.00;3.00;;;;;33.74;21.56;98549.81;6263466;27;96639;-72
2022/06/24 11:36:23;;;;;;;;;2.00;2.00;;;;;34.02;22.22;98551.28;6243275;27;98479;-73
2022/06/24 11:39:27;;;;;;;;;3.00;3.00;;;;;34.08;22.10;98558.13;6245088;27;98523;-73
2022/06/24 11:42:31;;;;;;;;;3.40;3.00;;;;;34.40;22.38;98555.66;6262752;27;96525;-74
2022/06/24 11:45:38;;;;;;;;;4.00;3.00;;;;;34.12;21.55;98551.38;6243646;27;97052;-73
2022/06/24 11:48:41;;;;;;;;;3.00;3.00;;;;;33.87;21.75;98544.75;6227492;27;96786;-72
2022/06/24 11:51:46;;;;;;;;;3.00;3.00;;;;;33.96;22.03;98539.66;6262667;27;97090;-71
2022/06/24 11:54:50;;;;;;;;;2.40;2.00;;;;;34.17;21.84;98536.22;6262614;27;96592;-71
2022/06/24 11:57:57;;;;;;;;;3.00;3.00;;;;;34.20;21.97;98529.91;6243857;27;98496;-71
2022/06/24 12:01:00;;;;;;;;;3.00;3.00;;;;;34.11;20.80;98538.56;6242565;27;97780;-73
2022/06/24 12:04:08;;;;;;;;;4.00;4.00;;;;;33.85;21.62;98530.34;6245841;27;98521;-73
2022/06/24 12:07:12;;;;;;;;;3.40;3.00;;;;;34.15;22.85;98531.03;6226260;27;98523;-73
2022/06/24 12:10:16;;;;;;;;;3.00;3.00;;;;;34.40;22.55;98524.88;6241892;27;99518;-73
2022/06/24 12:13:33;;;;;;;;;4.00;4.00;;;;;34.52;21.91;98518.94;6226879;27;99170;-72
2022/06/24 12:16:58;;;;;;;;;5.00;4.00;;;;;34.63;22.27;98526.25;6262172;27;96615;-73
2022/06/24 12:20:04;;;;;;;;;3.00;3.00;;;;;34.09;22.55;98523.38;6243286;27;96681;-73
2022/06/24 12:23:15;;;;;;;;;3.00;3.00;;;;;34.01;22.99;98514.13;6244571;27;97914;-73
2022/06/24 12:26:20;;;;;;;;;2.00;2.00;;;;;33.87;22.29;98509.19;6261015;27;97396;-72
2022/06/24 12:29:29;;;;;;;;;4.00;3.40;;;;;33.96;23.10;98506.09;6257091;27;96633;-73
2022/06/24 12:32:51;;;;;;;;;3.00;3.00;;;;;34.27;23.38;98493.56;6236635;27;96711;-71
2022/06/24 12:36:12;;;;;;;;;3.00;3.00;;;;;34.53;22.76;98489.75;6242825;27;96774;-72
2022/06/24 12:39:16;;;;;;;;;3.00;3.00;;;;;34.52;22.27;98483.38;6234268;27;97856;-74
2022/06/24 12:42:20;;;;;;;;;4.00;4.00;;;;;34.51;22.22;98483.75;6239210;27;97527;-72
2022/06/24 12:45:25;;;;;;;;;3.00;2.25;;;;;34.35;22.43;98475.66;6260726;27;97524;-72
2022/06/24 12:51:51;;;;;;;;;5.00;5.00;;;;;34.40;22.60;98466.91;6266216;27;97509;-72
2022/06/24 12:54:55;;;;;;;;;3.40;3.00;;;;;34.51;22.17;98466.94;6249069;27;97020;-71
2022/06/24 12:58:00;;;;;;;;;5.00;5.00;;;;;34.35;22.26;98467.28;6266448;27;97545;-71
2022/06/24 13:01:05;;;;;;;;;3.60;3.60;;;;;34.28;22.24;98456.81;6247724;27;97147;-72
2022/06/24 13:04:10;;;;;;;;;4.00;3.00;;;;;34.26;22.99;98461.19;6266987;27;96932;-71
2022/06/24 13:07:13;;;;;;;;;3.00;2.00;;;;;33.96;22.60;98461.34;6248717;27;96311;-72
2022/06/24 13:10:17;;;;;;;;;2.00;2.00;;;;;33.67;23.21;98454.69;6263731;27;96999;-73
2022/06/24 13:13:21;;;;;;;;;3.00;3.00;;;;;33.53;23.35;98427.34;6261574;27;97478;-73
2022/06/24 13:16:26;;;;;;;;;4.00;3.00;;;;;33.77;22.78;98456.75;6246264;27;96719;-73
2022/06/24 13:19:30;;;;;;;;;5.00;5.00;;;;;33.90;23.40;98457.28;6252388;27;96581;-73
2022/06/24 13:22:33;;;;;;;;;4.00;4.00;;;;;33.40;22.86;98459.56;6241621;27;96838;-73
2022/06/24 13:25:36;;;;;;;;;4.00;3.00;;;;;33.73;23.56;98467.13;6266003;27;97450;-73
2022/06/24 13:28:40;;;;;;;;;5.00;5.00;;;;;34.13;23.22;98463.47;6252971;27;98123;-72
2022/06/24 13:31:44;;;;;;;;;3.00;3.00;;;;;34.21;22.54;98461.56;6247903;27;96399;-72
2022/06/24 13:34:48;;;;;;;;;3.00;3.00;;;;;34.01;23.18;98458.19;6264599;27;96624;-72
2022/06/24 13:37:57;;;;;;;;;5.00;4.00;;;;;34.11;23.66;98465.84;6222734;28;97490;-71
2022/06/24 13:41:01;;;;;;;;;3.00;3.00;;;;;34.35;22.94;98453.28;6262198;27;97534;-72
2022/06/24 13:44:05;;;;;;;;;3.00;3.00;;;;;34.45;23.08;98457.34;6259949;27;96835;-72
2022/06/24 13:47:10;;;;;;;;;4.00;4.00;;;;;34.66;22.72;98444.25;6265320;27;97242;-73
2022/06/24 13:50:13;;;;;;;;;2.40;2.00;;;;;34.76;22.19;98439.91;6265544;27;97365;-72
2022/06/24 13:53:16;;;;;;;;;4.00;3.00;;;;;34.61;22.66;98446.63;6233408;27;98424;-71
2022/06/24 13:56:20;;;;;;;;;2.00;2.00;;;;;34.42;22.97;98444.09;6239758;27;98358;-72
2022/06/24 13:59:23;;;;;;;;;4.00;3.80;;;;;34.22;22.45;98437.97;6260780;27;97031;-71
2022/06/24 14:02:28;;;;;;;;;4.00;4.00;;;;;34.07;22.79;98428.66;6253313;27;97386;-72
2022/06/24 14:05:32;;;;;;;;;4.60;4.00;;;;;34.14;23.20;98427.91;6263075;27;97444;-73
2022/06/24 14:08:36;;;;;;;;;3.00;3.00;;;;;34.09;23.78;98445.84;6249276;27;98263;-72
2022/06/24 14:11:39;;;;;;;;;3.00;3.00;;;;;33.98;23.54;98428.19;6263877;27;96718;-72
2022/06/24 14:14:43;;;;;;;;;3.00;2.00;;;;;33.89;23.18;98422.13;6263033;27;97310;-72
2022/06/24 14:17:47;;;;;;;;;3.00;3.00;;;;;33.71;23.39;98412.78;6263687;27;96629;-72
2022/06/24 14:20:52;;;;;;;;;3.00;3.00;;;;;33.52;23.39;98419.38;6261012;27;96562;-73
2022/06/24 14:27:16;;;;;;;;;3.60;3.00;;;;;33.75;24.20;98411.63;6242322;27;97495;-74
2022/06/24 14:30:20;;;;;;;;;4.00;3.00;;;;;33.51;23.73;98404.59;6253482;27;96793;-72
2022/06/24 14:33:25;;;;;;;;;3.20;3.00;;;;;33.70;24.51;98403.59;6257809;27;97471;-72
2022/06/24 14:36:28;;;;;;;;;3.00;3.00;;;;;33.47;23.23;98397.38;6264584;27;96567;-72
2022/06/24 14:42:52;;;;;;;;;5.00;4.00;;;;;33.26;24.63;98388.78;6251055;27;97513;-72
2022/06/24 14:45:56;;;;;;;;;4.60;4.40;;;;;32.82;24.49;98380.28;6264703;27;97449;-72
2022/06/24 14:49:01;;;;;;;;;3.00;3.00;;;;;32.85;24.29;98374.72;6245074;27;96877;-72